sensor_id;sensor_type;location;lat;lon;timestamp;temperature;humidity
63802;DHT22;49949;43.060;25.624;2023-05-07T00:00:28;10.20;99.90
63802;DHT22;49949;43.060;25.624;2023-05-07T00:02:53;10.10;99.90
63802;DHT22;49949;43.060;25.624;2023-05-07T00:05:19;10.10;99.90
63802;DHT22;49949;43.060;25.624;2023-05-07T00:07:45;10.00;99.90
63802;DHT22;49949;43.060;25.624;2023-05-07T00:10:11;10.00;99.90
63802;DHT22;49949;43.060;25.624;2023-05-07T00:12:38;9.90;99.90
63802;DHT22;49949;43.060;25.624;2023-05-07T00:15:04;9.80;99.90
63802;DHT22;49949;43.060;25.624;2023-05-07T00:17:30;9.80;99.90
63802;DHT22;49949;43.060;25.624;2023-05-07T00:19:56;9.70;99.90
63802;DHT22;49949;43.060;25.624;2023-05-07T00:22:21;9.80;99.90
63802;DHT22;49949;43.060;25.624;2023-05-07T00:24:47;9.70;99.90
63802;DHT22;49949;43.060;25.624;2023-05-07T00:27:13;9.70;99.90
63802;DHT22;49949;43.060;25.624;2023-05-07T00:29:39;9.60;99.90
63802;DHT22;49949;43.060;25.624;2023-05-07T00:32:05;9.60;99.90
63802;DHT22;49949;43.060;25.624;2023-05-07T00:34:30;9.60;99.90
63802;DHT22;49949;43.060;25.624;2023-05-07T00:36:56;9.60;99.90
63802;DHT22;49949;43.060;25.624;2023-05-07T00:39:22;9.60;99.90
63802;DHT22;49949;43.060;25.624;2023-05-07T00:41:47;9.60;99.90
63802;DHT22;49949;43.060;25.624;2023-05-07T00:44:13;9.60;99.90
63802;DHT22;49949;43.060;25.624;2023-05-07T00:46:40;9.60;99.90
63802;DHT22;49949;43.060;25.624;2023-05-07T00:49:06;9.70;99.90
63802;DHT22;49949;43.060;25.624;2023-05-07T00:51:32;9.70;99.90
63802;DHT22;49949;43.060;25.624;2023-05-07T00:54:02;9.70;99.90
63802;DHT22;49949;43.060;25.624;2023-05-07T00:56:28;9.70;99.90
63802;DHT22;49949;43.060;25.624;2023-05-07T00:58:53;9.60;99.90
63802;DHT22;49949;43.060;25.624;2023-05-07T01:01:20;9.60;99.90
63802;DHT22;49949;43.060;25.624;2023-05-07T01:03:45;9.60;99.90
63802;DHT22;49949;43.060;25.624;2023-05-07T01:06:12;9.70;99.90
63802;DHT22;49949;43.060;25.624;2023-05-07T01:08:39;9.70;99.90
63802;DHT22;49949;43.060;25.624;2023-05-07T01:11:07;9.60;99.90
63802;DHT22;49949;43.060;25.624;2023-05-07T01:13:34;9.70;99.90
63802;DHT22;49949;43.060;25.624;2023-05-07T01:16:00;9.70;99.90
63802;DHT22;49949;43.060;25.624;2023-05-07T01:18:26;9.70;99.90
63802;DHT22;49949;43.060;25.624;2023-05-07T01:20:52;9.70;99.90
63802;DHT22;49949;43.060;25.624;2023-05-07T01:23:20;9.70;99.90
63802;DHT22;49949;43.060;25.624;2023-05-07T01:25:52;9.60;99.90
63802;DHT22;49949;43.060;25.624;2023-05-07T01:28:18;9.60;99.90
63802;DHT22;49949;43.060;25.624;2023-05-07T01:30:48;9.60;99.90
63802;DHT22;49949;43.060;25.624;2023-05-07T01:33:20;9.60;99.90
63802;DHT22;49949;43.060;25.624;2023-05-07T01:35:50;9.50;99.90
63802;DHT22;49949;43.060;25.624;2023-05-07T01:38:17;9.40;99.90
63802;DHT22;49949;43.060;25.624;2023-05-07T01:40:43;9.40;99.90
63802;DHT22;49949;43.060;25.624;2023-05-07T01:43:10;9.40;99.90
63802;DHT22;49949;43.060;25.624;2023-05-07T01:45:36;9.40;99.90
63802;DHT22;49949;43.060;25.624;2023-05-07T01:48:03;9.40;99.90
63802;DHT22;49949;43.060;25.624;2023-05-07T01:50:30;9.40;99.90
63802;DHT22;49949;43.060;25.624;2023-05-07T01:52:56;9.40;99.90
63802;DHT22;49949;43.060;25.624;2023-05-07T01:55:22;9.40;99.90
63802;DHT22;49949;43.060;25.624;2023-05-07T01:57:49;9.40;99.90
63802;DHT22;49949;43.060;25.624;2023-05-07T02:00:15;9.40;99.90
63802;DHT22;49949;43.060;25.624;2023-05-07T02:02:40;9.30;99.90
63802;DHT22;49949;43.060;25.624;2023-05-07T02:05:06;9.30;99.90
63802;DHT22;49949;43.060;25.624;2023-05-07T02:07:32;9.30;99.90
63802;DHT22;49949;43.060;25.624;2023-05-07T02:09:58;9.20;99.90
63802;DHT22;49949;43.060;25.624;2023-05-07T02:12:23;9.20;99.90
63802;DHT22;49949;43.060;25.624;2023-05-07T02:14:49;9.10;99.90
63802;DHT22;49949;43.060;25.624;2023-05-07T02:17:15;9.10;99.90
63802;DHT22;49949;43.060;25.624;2023-05-07T02:19:41;9.10;99.90
63802;DHT22;49949;43.060;25.624;2023-05-07T02:22:09;9.10;99.90
63802;DHT22;49949;43.060;25.624;2023-05-07T02:24:35;9.00;99.90
63802;DHT22;49949;43.060;25.624;2023-05-07T02:27:01;9.10;99.90
63802;DHT22;49949;43.060;25.624;2023-05-07T02:29:27;9.00;99.90
63802;DHT22;49949;43.060;25.624;2023-05-07T02:31:53;8.90;99.90
63802;DHT22;49949;43.060;25.624;2023-05-07T02:34:19;9.00;99.90
63802;DHT22;49949;43.060;25.624;2023-05-07T02:36:45;8.90;99.90
63802;DHT22;49949;43.060;25.624;2023-05-07T02:39:12;8.90;99.90
63802;DHT22;49949;43.060;25.624;2023-05-07T02:41:37;8.90;99.90
63802;DHT22;49949;43.060;25.624;2023-05-07T02:44:03;8.90;99.90
63802;DHT22;49949;43.060;25.624;2023-05-07T02:46:29;8.80;99.90
63802;DHT22;49949;43.060;25.624;2023-05-07T02:48:55;8.90;99.90
63802;DHT22;49949;43.060;25.624;2023-05-07T02:51:22;8.90;99.90
63802;DHT22;49949;43.060;25.624;2023-05-07T02:53:48;8.80;99.90
63802;DHT22;49949;43.060;25.624;2023-05-07T02:56:14;8.80;99.90
63802;DHT22;49949;43.060;25.624;2023-05-07T02:58:40;8.80;99.90
63802;DHT22;49949;43.060;25.624;2023-05-07T03:01:06;8.80;99.90
63802;DHT22;49949;43.060;25.624;2023-05-07T03:03:31;8.70;99.90
63802;DHT22;49949;43.060;25.624;2023-05-07T03:05:57;8.70;99.90
63802;DHT22;49949;43.060;25.624;2023-05-07T03:08:23;8.70;99.90
63802;DHT22;49949;43.060;25.624;2023-05-07T03:10:49;8.60;99.90
63802;DHT22;49949;43.060;25.624;2023-05-07T03:13:15;8.60;99.90
63802;DHT22;49949;43.060;25.624;2023-05-07T03:15:40;8.60;99.90
63802;DHT22;49949;43.060;25.624;2023-05-07T03:18:06;8.60;99.90
63802;DHT22;49949;43.060;25.624;2023-05-07T03:20:32;8.70;99.90
63802;DHT22;49949;43.060;25.624;2023-05-07T03:22:57;8.60;99.90
63802;DHT22;49949;43.060;25.624;2023-05-07T03:25:23;8.50;99.90
63802;DHT22;49949;43.060;25.624;2023-05-07T03:27:49;8.60;99.90
63802;DHT22;49949;43.060;25.624;2023-05-07T03:30:14;8.60;99.90
63802;DHT22;49949;43.060;25.624;2023-05-07T03:32:40;8.70;99.90
63802;DHT22;49949;43.060;25.624;2023-05-07T03:35:06;8.70;99.90
63802;DHT22;49949;43.060;25.624;2023-05-07T03:37:33;8.70;99.90
63802;DHT22;49949;43.060;25.624;2023-05-07T03:39:58;8.50;99.90
63802;DHT22;49949;43.060;25.624;2023-05-07T03:42:25;8.50;99.90
63802;DHT22;49949;43.060;25.624;2023-05-07T03:44:50;8.40;99.90
63802;DHT22;49949;43.060;25.624;2023-05-07T03:47:16;8.40;99.90
63802;DHT22;49949;43.060;25.624;2023-05-07T03:49:42;8.50;99.90
63802;DHT22;49949;43.060;25.624;2023-05-07T03:52:07;8.40;99.90
63802;DHT22;49949;43.060;25.624;2023-05-07T03:54:33;8.30;99.90
63802;DHT22;49949;43.060;25.624;2023-05-07T03:56:59;8.30;99.90
63802;DHT22;49949;43.060;25.624;2023-05-07T03:59:24;8.40;99.90
63802;DHT22;49949;43.060;25.624;2023-05-07T04:01:50;8.40;99.90
63802;DHT22;49949;43.060;25.624;2023-05-07T04:04:16;8.40;99.90
63802;DHT22;49949;43.060;25.624;2023-05-07T04:06:42;8.40;99.90
63802;DHT22;49949;43.060;25.624;2023-05-07T04:09:08;8.40;99.90
63802;DHT22;49949;43.060;25.624;2023-05-07T04:11:35;8.50;99.90
63802;DHT22;49949;43.060;25.624;2023-05-07T04:14:01;8.50;99.90
63802;DHT22;49949;43.060;25.624;2023-05-07T04:16:26;8.70;99.90
63802;DHT22;49949;43.060;25.624;2023-05-07T04:18:52;8.70;99.90
63802;DHT22;49949;43.060;25.624;2023-05-07T04:21:19;8.80;99.90
63802;DHT22;49949;43.060;25.624;2023-05-07T04:23:48;8.90;99.90
63802;DHT22;49949;43.060;25.624;2023-05-07T04:26:15;9.00;99.90
63802;DHT22;49949;43.060;25.624;2023-05-07T04:28:41;9.10;99.90
63802;DHT22;49949;43.060;25.624;2023-05-07T04:31:07;9.10;99.90
63802;DHT22;49949;43.060;25.624;2023-05-07T04:33:34;9.30;99.90
63802;DHT22;49949;43.060;25.624;2023-05-07T04:36:03;9.40;99.90
63802;DHT22;49949;43.060;25.624;2023-05-07T04:38:32;9.60;99.90
63802;DHT22;49949;43.060;25.624;2023-05-07T04:41:09;9.80;99.90
63802;DHT22;49949;43.060;25.624;2023-05-07T04:43:35;10.00;99.90
63802;DHT22;49949;43.060;25.624;2023-05-07T04:46:01;10.10;99.90
63802;DHT22;49949;43.060;25.624;2023-05-07T04:48:27;10.50;99.90
63802;DHT22;49949;43.060;25.624;2023-05-07T04:50:54;10.70;99.90
63802;DHT22;49949;43.060;25.624;2023-05-07T04:53:20;10.80;99.90
63802;DHT22;49949;43.060;25.624;2023-05-07T04:55:45;11.00;99.90
63802;DHT22;49949;43.060;25.624;2023-05-07T04:58:11;11.20;99.90
63802;DHT22;49949;43.060;25.624;2023-05-07T05:00:38;11.50;99.90
63802;DHT22;49949;43.060;25.624;2023-05-07T05:03:06;12.10;99.90
63802;DHT22;49949;43.060;25.624;2023-05-07T05:05:32;12.70;99.90
63802;DHT22;49949;43.060;25.624;2023-05-07T05:07:58;13.10;99.90
63802;DHT22;49949;43.060;25.624;2023-05-07T05:10:23;13.20;99.90
63802;DHT22;49949;43.060;25.624;2023-05-07T05:12:50;13.50;99.90
63802;DHT22;49949;43.060;25.624;2023-05-07T05:15:16;14.10;99.90
63802;DHT22;49949;43.060;25.624;2023-05-07T05:17:41;14.40;99.90
63802;DHT22;49949;43.060;25.624;2023-05-07T05:20:07;14.50;99.90
63802;DHT22;49949;43.060;25.624;2023-05-07T05:22:35;15.00;99.90
63802;DHT22;49949;43.060;25.624;2023-05-07T05:25:00;15.30;99.90
63802;DHT22;49949;43.060;25.624;2023-05-07T05:27:26;15.60;99.90
63802;DHT22;49949;43.060;25.624;2023-05-07T05:29:52;15.80;99.90
63802;DHT22;49949;43.060;25.624;2023-05-07T05:32:17;16.20;99.90
63802;DHT22;49949;43.060;25.624;2023-05-07T05:34:43;16.50;99.90
63802;DHT22;49949;43.060;25.624;2023-05-07T05:37:09;17.00;99.90
63802;DHT22;49949;43.060;25.624;2023-05-07T05:39:36;17.50;99.90
63802;DHT22;49949;43.060;25.624;2023-05-07T05:42:02;18.00;99.90
63802;DHT22;49949;43.060;25.624;2023-05-07T05:44:28;18.50;99.90
63802;DHT22;49949;43.060;25.624;2023-05-07T05:46:53;18.70;99.90
63802;DHT22;49949;43.060;25.624;2023-05-07T05:49:24;19.00;99.90
63802;DHT22;49949;43.060;25.624;2023-05-07T05:51:50;19.10;99.90
63802;DHT22;49949;43.060;25.624;2023-05-07T05:54:16;18.90;99.90
63802;DHT22;49949;43.060;25.624;2023-05-07T05:56:42;18.90;99.90
63802;DHT22;49949;43.060;25.624;2023-05-07T05:59:08;18.90;99.90
63802;DHT22;49949;43.060;25.624;2023-05-07T06:01:33;18.90;99.90
63802;DHT22;49949;43.060;25.624;2023-05-07T06:03:59;18.90;99.90
63802;DHT22;49949;43.060;25.624;2023-05-07T06:06:25;18.90;99.90
63802;DHT22;49949;43.060;25.624;2023-05-07T06:08:51;18.70;99.90
63802;DHT22;49949;43.060;25.624;2023-05-07T06:11:17;18.70;99.90
63802;DHT22;49949;43.060;25.624;2023-05-07T06:13:42;18.80;99.90
63802;DHT22;49949;43.060;25.624;2023-05-07T06:16:08;18.90;99.90
63802;DHT22;49949;43.060;25.624;2023-05-07T06:18:34;19.10;99.90
63802;DHT22;49949;43.060;25.624;2023-05-07T06:21:01;19.10;99.90
63802;DHT22;49949;43.060;25.624;2023-05-07T06:23:27;19.20;99.90
63802;DHT22;49949;43.060;25.624;2023-05-07T06:25:53;19.40;99.90
63802;DHT22;49949;43.060;25.624;2023-05-07T06:28:18;19.40;99.90
63802;DHT22;49949;43.060;25.624;2023-05-07T06:30:44;19.40;99.90
63802;DHT22;49949;43.060;25.624;2023-05-07T06:33:10;19.00;99.90
63802;DHT22;49949;43.060;25.624;2023-05-07T06:35:36;18.80;99.90
63802;DHT22;49949;43.060;25.624;2023-05-07T06:38:01;18.90;99.90
63802;DHT22;49949;43.060;25.624;2023-05-07T06:40:27;19.00;99.90
63802;DHT22;49949;43.060;25.624;2023-05-07T06:42:53;19.10;99.90
63802;DHT22;49949;43.060;25.624;2023-05-07T06:45:19;19.00;99.90
63802;DHT22;49949;43.060;25.624;2023-05-07T06:47:45;19.10;99.90
63802;DHT22;49949;43.060;25.624;2023-05-07T06:50:11;19.40;99.90
63802;DHT22;49949;43.060;25.624;2023-05-07T06:52:37;19.60;99.90
63802;DHT22;49949;43.060;25.624;2023-05-07T06:55:03;19.70;99.30
63802;DHT22;49949;43.060;25.624;2023-05-07T06:57:28;19.90;97.60
63802;DHT22;49949;43.060;25.624;2023-05-07T06:59:54;20.00;96.90
63802;DHT22;49949;43.060;25.624;2023-05-07T07:02:20;20.30;95.50
63802;DHT22;49949;43.060;25.624;2023-05-07T07:04:45;20.40;95.60
63802;DHT22;49949;43.060;25.624;2023-05-07T07:07:11;20.50;90.20
63802;DHT22;49949;43.060;25.624;2023-05-07T07:09:37;20.40;91.30
63802;DHT22;49949;43.060;25.624;2023-05-07T07:12:03;20.50;89.00
63802;DHT22;49949;43.060;25.624;2023-05-07T07:14:28;20.40;88.60
63802;DHT22;49949;43.060;25.624;2023-05-07T07:16:54;20.40;87.50
63802;DHT22;49949;43.060;25.624;2023-05-07T07:19:20;20.30;87.60
63802;DHT22;49949;43.060;25.624;2023-05-07T07:21:46;20.20;89.00
63802;DHT22;49949;43.060;25.624;2023-05-07T07:24:13;20.20;90.00
63802;DHT22;49949;43.060;25.624;2023-05-07T07:26:38;20.50;90.40
63802;DHT22;49949;43.060;25.624;2023-05-07T07:29:05;20.60;89.10
63802;DHT22;49949;43.060;25.624;2023-05-07T07:31:32;20.80;85.80
63802;DHT22;49949;43.060;25.624;2023-05-07T07:33:58;21.00;85.70
63802;DHT22;49949;43.060;25.624;2023-05-07T07:36:23;21.10;84.60
63802;DHT22;49949;43.060;25.624;2023-05-07T07:38:49;21.30;84.70
63802;DHT22;49949;43.060;25.624;2023-05-07T07:41:14;21.40;83.50
63802;DHT22;49949;43.060;25.624;2023-05-07T07:43:40;21.60;81.90
63802;DHT22;49949;43.060;25.624;2023-05-07T07:46:06;21.70;81.80
63802;DHT22;49949;43.060;25.624;2023-05-07T07:48:32;21.80;81.30
63802;DHT22;49949;43.060;25.624;2023-05-07T07:50:57;21.90;79.10
63802;DHT22;49949;43.060;25.624;2023-05-07T07:53:23;22.10;79.10
63802;DHT22;49949;43.060;25.624;2023-05-07T07:55:48;22.30;77.90
63802;DHT22;49949;43.060;25.624;2023-05-07T07:58:14;22.30;78.10
63802;DHT22;49949;43.060;25.624;2023-05-07T08:00:40;22.20;75.80
63802;DHT22;49949;43.060;25.624;2023-05-07T08:03:08;22.10;76.50
63802;DHT22;49949;43.060;25.624;2023-05-07T08:05:34;22.10;76.60
63802;DHT22;49949;43.060;25.624;2023-05-07T08:07:59;22.30;77.00
63802;DHT22;49949;43.060;25.624;2023-05-07T08:10:25;22.10;74.70
63802;DHT22;49949;43.060;25.624;2023-05-07T08:12:51;22.00;75.80
63802;DHT22;49949;43.060;25.624;2023-05-07T08:15:17;22.10;74.50
63802;DHT22;49949;43.060;25.624;2023-05-07T08:17:43;21.90;74.60
63802;DHT22;49949;43.060;25.624;2023-05-07T08:20:09;21.70;66.90
63802;DHT22;49949;43.060;25.624;2023-05-07T08:22:35;21.70;63.80
63802;DHT22;49949;43.060;25.624;2023-05-07T08:25:02;21.40;65.00
63802;DHT22;49949;43.060;25.624;2023-05-07T08:27:27;21.20;65.30
63802;DHT22;49949;43.060;25.624;2023-05-07T08:29:53;21.30;63.80
63802;DHT22;49949;43.060;25.624;2023-05-07T08:32:20;21.30;63.10
63802;DHT22;49949;43.060;25.624;2023-05-07T08:34:46;21.30;64.10
63802;DHT22;49949;43.060;25.624;2023-05-07T08:37:12;21.20;63.00
63802;DHT22;49949;43.060;25.624;2023-05-07T08:39:37;21.20;62.90
63802;DHT22;49949;43.060;25.624;2023-05-07T08:42:04;21.30;61.30
63802;DHT22;49949;43.060;25.624;2023-05-07T08:44:34;21.60;61.30
63802;DHT22;49949;43.060;25.624;2023-05-07T08:47:02;21.10;61.70
63802;DHT22;49949;43.060;25.624;2023-05-07T08:49:28;21.10;61.60
63802;DHT22;49949;43.060;25.624;2023-05-07T08:51:54;21.10;62.90
63802;DHT22;49949;43.060;25.624;2023-05-07T08:54:21;21.30;62.90
63802;DHT22;49949;43.060;25.624;2023-05-07T08:56:47;21.60;60.00
63802;DHT22;49949;43.060;25.624;2023-05-07T08:59:13;21.90;61.50
63802;DHT22;49949;43.060;25.624;2023-05-07T09:01:39;22.00;58.50
63802;DHT22;49949;43.060;25.624;2023-05-07T09:04:05;21.80;58.30
63802;DHT22;49949;43.060;25.624;2023-05-07T09:06:32;21.80;58.90
63802;DHT22;49949;43.060;25.624;2023-05-07T09:08:58;21.60;60.60
63802;DHT22;49949;43.060;25.624;2023-05-07T09:11:26;21.70;59.70
63802;DHT22;49949;43.060;25.624;2023-05-07T09:13:54;21.90;61.20
63802;DHT22;49949;43.060;25.624;2023-05-07T09:16:22;21.80;60.20
63802;DHT22;49949;43.060;25.624;2023-05-07T09:18:51;22.00;60.90
63802;DHT22;49949;43.060;25.624;2023-05-07T09:21:18;22.00;60.90
63802;DHT22;49949;43.060;25.624;2023-05-07T09:23:44;22.10;60.60
63802;DHT22;49949;43.060;25.624;2023-05-07T09:26:09;22.50;59.80
63802;DHT22;49949;43.060;25.624;2023-05-07T09:28:40;22.50;59.30
63802;DHT22;49949;43.060;25.624;2023-05-07T09:31:08;22.30;60.90
63802;DHT22;49949;43.060;25.624;2023-05-07T09:33:33;22.20;60.00
63802;DHT22;49949;43.060;25.624;2023-05-07T09:36:03;22.50;58.60
63802;DHT22;49949;43.060;25.624;2023-05-07T09:38:29;22.60;60.40
63802;DHT22;49949;43.060;25.624;2023-05-07T09:41:09;22.80;62.50
63802;DHT22;49949;43.060;25.624;2023-05-07T09:43:37;23.00;62.80
63802;DHT22;49949;43.060;25.624;2023-05-07T09:46:13;23.60;59.10
63802;DHT22;49949;43.060;25.624;2023-05-07T09:48:41;24.00;59.40
63802;DHT22;49949;43.060;25.624;2023-05-07T09:51:18;24.20;57.30
63802;DHT22;49949;43.060;25.624;2023-05-07T09:53:47;24.10;57.80
63802;DHT22;49949;43.060;25.624;2023-05-07T09:56:14;23.70;59.40
63802;DHT22;49949;43.060;25.624;2023-05-07T09:58:43;23.30;61.20
63802;DHT22;49949;43.060;25.624;2023-05-07T10:01:11;23.30;59.80
63802;DHT22;49949;43.060;25.624;2023-05-07T10:03:40;23.40;59.00
63802;DHT22;49949;43.060;25.624;2023-05-07T10:06:08;23.40;59.20
63802;DHT22;49949;43.060;25.624;2023-05-07T10:08:35;23.50;60.60
63802;DHT22;49949;43.060;25.624;2023-05-07T10:11:01;23.70;60.20
63802;DHT22;49949;43.060;25.624;2023-05-07T10:13:28;23.80;58.80
63802;DHT22;49949;43.060;25.624;2023-05-07T10:15:55;23.60;59.10
63802;DHT22;49949;43.060;25.624;2023-05-07T10:18:22;23.80;60.40
63802;DHT22;49949;43.060;25.624;2023-05-07T10:20:51;23.60;60.70
63802;DHT22;49949;43.060;25.624;2023-05-07T10:23:23;23.70;62.20
63802;DHT22;49949;43.060;25.624;2023-05-07T10:25:50;23.60;60.20
63802;DHT22;49949;43.060;25.624;2023-05-07T10:28:17;23.30;61.90
63802;DHT22;49949;43.060;25.624;2023-05-07T10:33:24;23.40;63.10
63802;DHT22;49949;43.060;25.624;2023-05-07T10:35:51;23.50;61.60
63802;DHT22;49949;43.060;25.624;2023-05-07T10:38:21;23.60;61.90
63802;DHT22;49949;43.060;25.624;2023-05-07T10:40:47;23.60;61.30
63802;DHT22;49949;43.060;25.624;2023-05-07T10:43:13;23.40;60.40
63802;DHT22;49949;43.060;25.624;2023-05-07T10:45:39;23.00;61.30
63802;DHT22;49949;43.060;25.624;2023-05-07T10:48:09;22.80;61.40
63802;DHT22;49949;43.060;25.624;2023-05-07T10:50:40;23.00;63.10
63802;DHT22;49949;43.060;25.624;2023-05-07T10:55:45;23.00;62.00
63802;DHT22;49949;43.060;25.624;2023-05-07T10:58:25;23.00;63.50
63802;DHT22;49949;43.060;25.624;2023-05-07T11:00:59;23.30;63.80
63802;DHT22;49949;43.060;25.624;2023-05-07T11:03:27;23.50;63.70
63802;DHT22;49949;43.060;25.624;2023-05-07T11:06:12;23.60;63.00
63802;DHT22;49949;43.060;25.624;2023-05-07T11:08:53;23.50;60.20
63802;DHT22;49949;43.060;25.624;2023-05-07T11:11:20;23.40;62.20
63802;DHT22;49949;43.060;25.624;2023-05-07T11:14:05;23.50;60.00
63802;DHT22;49949;43.060;25.624;2023-05-07T11:16:32;23.60;59.30
63802;DHT22;49949;43.060;25.624;2023-05-07T11:18:59;23.80;59.70
63802;DHT22;49949;43.060;25.624;2023-05-07T11:21:40;24.00;60.70
63802;DHT22;49949;43.060;25.624;2023-05-07T11:24:07;24.10;59.40
63802;DHT22;49949;43.060;25.624;2023-05-07T11:26:53;24.00;59.90
63802;DHT22;49949;43.060;25.624;2023-05-07T11:29:21;23.90;60.00
63802;DHT22;49949;43.060;25.624;2023-05-07T11:31:53;24.10;59.30
63802;DHT22;49949;43.060;25.624;2023-05-07T11:34:24;24.20;60.00
63802;DHT22;49949;43.060;25.624;2023-05-07T11:36:50;24.30;59.00
63802;DHT22;49949;43.060;25.624;2023-05-07T11:39:30;24.10;60.00
63802;DHT22;49949;43.060;25.624;2023-05-07T11:42:01;24.20;60.00
63802;DHT22;49949;43.060;25.624;2023-05-07T11:45:00;24.40;59.70
63802;DHT22;49949;43.060;25.624;2023-05-07T11:47:26;24.40;59.50
63802;DHT22;49949;43.060;25.624;2023-05-07T11:49:55;24.40;60.40
63802;DHT22;49949;43.060;25.624;2023-05-07T11:52:22;24.40;59.30
63802;DHT22;49949;43.060;25.624;2023-05-07T11:54:56;24.50;60.70
63802;DHT22;49949;43.060;25.624;2023-05-07T11:57:23;24.70;60.00
63802;DHT22;49949;43.060;25.624;2023-05-07T11:59:53;24.60;58.60
63802;DHT22;49949;43.060;25.624;2023-05-07T12:02:19;24.20;57.50
63802;DHT22;49949;43.060;25.624;2023-05-07T12:04:44;23.90;59.70
63802;DHT22;49949;43.060;25.624;2023-05-07T12:07:14;23.80;59.30
63802;DHT22;49949;43.060;25.624;2023-05-07T12:09:44;23.70;58.80
63802;DHT22;49949;43.060;25.624;2023-05-07T12:12:09;23.40;59.70
63802;DHT22;49949;43.060;25.624;2023-05-07T12:14:42;23.50;60.20
63802;DHT22;49949;43.060;25.624;2023-05-07T12:17:10;23.60;60.00
63802;DHT22;49949;43.060;25.624;2023-05-07T12:19:39;23.70;59.50
63802;DHT22;49949;43.060;25.624;2023-05-07T12:22:07;23.90;60.40
63802;DHT22;49949;43.060;25.624;2023-05-07T12:24:46;23.90;58.50
63802;DHT22;49949;43.060;25.624;2023-05-07T12:27:13;23.70;56.70
63802;DHT22;49949;43.060;25.624;2023-05-07T12:29:38;23.70;57.80
63802;DHT22;49949;43.060;25.624;2023-05-07T12:32:06;23.90;60.50
63802;DHT22;49949;43.060;25.624;2023-05-07T12:34:32;23.80;57.50
63802;DHT22;49949;43.060;25.624;2023-05-07T12:37:01;23.80;59.30
63802;DHT22;49949;43.060;25.624;2023-05-07T12:39:28;23.90;58.80
63802;DHT22;49949;43.060;25.624;2023-05-07T12:41:55;24.00;58.60
63802;DHT22;49949;43.060;25.624;2023-05-07T12:44:22;24.00;57.50
63802;DHT22;49949;43.060;25.624;2023-05-07T12:46:49;23.80;57.80
63802;DHT22;49949;43.060;25.624;2023-05-07T12:49:15;23.70;57.30
63802;DHT22;49949;43.060;25.624;2023-05-07T12:51:40;23.70;58.60
63802;DHT22;49949;43.060;25.624;2023-05-07T12:54:06;23.90;58.10
63802;DHT22;49949;43.060;25.624;2023-05-07T12:56:35;24.10;58.00
63802;DHT22;49949;43.060;25.624;2023-05-07T12:59:01;24.30;57.80
63802;DHT22;49949;43.060;25.624;2023-05-07T13:01:30;24.40;56.50
63802;DHT22;49949;43.060;25.624;2023-05-07T13:04:01;24.10;56.10
63802;DHT22;49949;43.060;25.624;2023-05-07T13:06:28;24.20;58.50
63802;DHT22;49949;43.060;25.624;2023-05-07T13:08:53;24.30;57.30
63802;DHT22;49949;43.060;25.624;2023-05-07T13:11:19;24.20;57.00
63802;DHT22;49949;43.060;25.624;2023-05-07T13:13:46;24.10;56.60
63802;DHT22;49949;43.060;25.624;2023-05-07T13:16:11;24.00;56.70
63802;DHT22;49949;43.060;25.624;2023-05-07T13:18:38;24.00;57.30
63802;DHT22;49949;43.060;25.624;2023-05-07T13:21:04;23.90;57.40
63802;DHT22;49949;43.060;25.624;2023-05-07T13:23:30;24.00;56.60
63802;DHT22;49949;43.060;25.624;2023-05-07T13:25:56;24.10;57.80
63802;DHT22;49949;43.060;25.624;2023-05-07T13:28:23;24.30;57.00
63802;DHT22;49949;43.060;25.624;2023-05-07T13:30:49;24.30;57.60
63802;DHT22;49949;43.060;25.624;2023-05-07T13:33:17;24.40;56.20
63802;DHT22;49949;43.060;25.624;2023-05-07T13:35:43;24.20;55.20
63802;DHT22;49949;43.060;25.624;2023-05-07T13:38:09;24.10;55.60
63802;DHT22;49949;43.060;25.624;2023-05-07T13:40:35;23.90;55.30
63802;DHT22;49949;43.060;25.624;2023-05-07T13:43:00;23.80;56.20
63802;DHT22;49949;43.060;25.624;2023-05-07T13:45:29;23.80;55.50
63802;DHT22;49949;43.060;25.624;2023-05-07T13:47:55;23.80;55.30
63802;DHT22;49949;43.060;25.624;2023-05-07T13:50:21;23.90;55.60
63802;DHT22;49949;43.060;25.624;2023-05-07T13:52:47;23.80;54.10
63802;DHT22;49949;43.060;25.624;2023-05-07T13:55:20;23.80;54.10
63802;DHT22;49949;43.060;25.624;2023-05-07T13:57:46;24.00;55.10
63802;DHT22;49949;43.060;25.624;2023-05-07T14:00:12;24.10;53.40
63802;DHT22;49949;43.060;25.624;2023-05-07T14:02:38;24.10;55.60
63802;DHT22;49949;43.060;25.624;2023-05-07T14:05:04;24.40;56.00
63802;DHT22;49949;43.060;25.624;2023-05-07T14:07:30;24.40;54.00
63802;DHT22;49949;43.060;25.624;2023-05-07T14:09:56;24.40;53.20
63802;DHT22;49949;43.060;25.624;2023-05-07T14:12:22;24.20;52.50
63802;DHT22;49949;43.060;25.624;2023-05-07T14:14:48;24.20;53.40
63802;DHT22;49949;43.060;25.624;2023-05-07T14:17:18;24.20;53.90
63802;DHT22;49949;43.060;25.624;2023-05-07T14:19:44;24.10;54.00
63802;DHT22;49949;43.060;25.624;2023-05-07T14:22:10;24.10;54.10
63802;DHT22;49949;43.060;25.624;2023-05-07T14:24:36;24.10;53.90
63802;DHT22;49949;43.060;25.624;2023-05-07T14:27:01;24.40;54.70
63802;DHT22;49949;43.060;25.624;2023-05-07T14:29:27;24.50;54.00
63802;DHT22;49949;43.060;25.624;2023-05-07T14:31:53;24.60;53.50
63802;DHT22;49949;43.060;25.624;2023-05-07T14:34:19;24.40;52.50
63802;DHT22;49949;43.060;25.624;2023-05-07T14:36:44;24.10;53.50
63802;DHT22;49949;43.060;25.624;2023-05-07T14:39:10;24.40;54.40
63802;DHT22;49949;43.060;25.624;2023-05-07T14:41:36;24.40;53.30
63802;DHT22;49949;43.060;25.624;2023-05-07T14:44:01;24.40;54.10
63802;DHT22;49949;43.060;25.624;2023-05-07T14:46:29;24.50;52.50
63802;DHT22;49949;43.060;25.624;2023-05-07T14:48:56;24.60;54.10
63802;DHT22;49949;43.060;25.624;2023-05-07T14:51:22;24.50;53.20
63802;DHT22;49949;43.060;25.624;2023-05-07T14:53:50;24.50;53.20
63802;DHT22;49949;43.060;25.624;2023-05-07T14:56:16;24.30;53.00
63802;DHT22;49949;43.060;25.624;2023-05-07T14:58:43;24.40;53.40
63802;DHT22;49949;43.060;25.624;2023-05-07T15:01:09;24.30;53.30
63802;DHT22;49949;43.060;25.624;2023-05-07T15:03:34;24.10;53.00
63802;DHT22;49949;43.060;25.624;2023-05-07T15:06:01;24.10;53.70
63802;DHT22;49949;43.060;25.624;2023-05-07T15:08:26;24.10;54.20
63802;DHT22;49949;43.060;25.624;2023-05-07T15:10:52;23.90;54.80
63802;DHT22;49949;43.060;25.624;2023-05-07T15:13:18;23.80;55.70
63802;DHT22;49949;43.060;25.624;2023-05-07T15:15:44;23.90;54.80
63802;DHT22;49949;43.060;25.624;2023-05-07T15:18:10;24.00;54.10
63802;DHT22;49949;43.060;25.624;2023-05-07T15:20:36;23.90;54.60
63802;DHT22;49949;43.060;25.624;2023-05-07T15:23:02;23.80;53.90